AYPY/POM METAR and TAF weather

Enter ICAO airport designator
Station Type Date Time Source
AYPY METAR 2022/06/27 08:00 UTC NOAA

AYPY 270800Z 16010KT 9999 FUHZ FEW015 SCT100 28/25 Q1007=


Station Type Date Time Source
AYPY Decoded METAR 2022/06/27 08:00 UTC NOAA

Moresby, Papua New Guinea (AYPY) 09-26S 147-13E 49M
Jun 27, 2022 - 04:00 AM EDT / 2022.06.27 0800 UTC
Wind: from the SSE (160 degrees) at 12 MPH (10 KT):0
Visibility: greater than 7 mile(s):0
Sky conditions: partly cloudy
Weather: smoke, haze
Temperature: 82 F (28 C)
Dew Point: 77 F (25 C)
Relative Humidity: 83%
Pressure (altimeter): 29.74 in. Hg (1007 hPa)
ob: AYPY 270800Z 16010KT 9999 FUHZ FEW015 SCT100 28/25 Q1007=
cycle: 8

Station Type Date Time Source
AYPY TAF 2022/06/27 06:09 UTC NOAA

TAF TAF AYPY 270230Z 2706/2806 18012KT 9999 -SHRA SCT018 SCT040 BKN130
FM271000 16008KT 9999 -RADZ SCT030 BKN130 PROB30 INTER 2706/2709 5000 TSRA BKN010 FEW018CB

Example: see airport list